sensor_id;sensor_type;location;lat;lon;timestamp;P1;durP1;ratioP1;P2;durP2;ratioP2
40591;SDS011;26301;42.832;23.918;2022-09-28T00:01:52;4.78;;;2.10;;
40591;SDS011;26301;42.832;23.918;2022-09-28T00:04:18;9.82;;;1.67;;
40591;SDS011;26301;42.832;23.918;2022-09-28T00:06:44;6.20;;;1.92;;
40591;SDS011;26301;42.832;23.918;2022-09-28T00:09:14;12.20;;;2.20;;
40591;SDS011;26301;42.832;23.918;2022-09-28T00:11:41;6.90;;;1.80;;
40591;SDS011;26301;42.832;23.918;2022-09-28T00:14:08;7.95;;;1.83;;
40591;SDS011;26301;42.832;23.918;2022-09-28T00:16:36;7.28;;;1.90;;
40591;SDS011;26301;42.832;23.918;2022-09-28T00:19:04;5.30;;;2.22;;
40591;SDS011;26301;42.832;23.918;2022-09-28T00:21:32;4.20;;;2.10;;
40591;SDS011;26301;42.832;23.918;2022-09-28T00:24:00;9.23;;;1.90;;
40591;SDS011;26301;42.832;23.918;2022-09-28T00:26:37;8.10;;;1.80;;
40591;SDS011;26301;42.832;23.918;2022-09-28T00:29:05;3.63;;;1.85;;
40591;SDS011;26301;42.832;23.918;2022-09-28T00:31:32;6.10;;;2.25;;
40591;SDS011;26301;42.832;23.918;2022-09-28T00:33:59;6.40;;;1.92;;
40591;SDS011;26301;42.832;23.918;2022-09-28T00:36:29;6.13;;;2.42;;
40591;SDS011;26301;42.832;23.918;2022-09-28T00:38:57;9.18;;;2.03;;
40591;SDS011;26301;42.832;23.918;2022-09-28T00:41:25;4.60;;;1.90;;
40591;SDS011;26301;42.832;23.918;2022-09-28T00:44:18;7.40;;;2.10;;
40591;SDS011;26301;42.832;23.918;2022-09-28T00:46:57;8.98;;;2.45;;
40591;SDS011;26301;42.832;23.918;2022-09-28T00:49:30;5.10;;;1.90;;
40591;SDS011;26301;42.832;23.918;2022-09-28T00:52:00;8.48;;;1.85;;
40591;SDS011;26301;42.832;23.918;2022-09-28T00:54:28;6.72;;;1.90;;
40591;SDS011;26301;42.832;23.918;2022-09-28T00:56:53;4.93;;;1.90;;
40591;SDS011;26301;42.832;23.918;2022-09-28T00:59:20;5.45;;;1.95;;
40591;SDS011;26301;42.832;23.918;2022-09-28T01:01:49;4.32;;;2.05;;
40591;SDS011;26301;42.832;23.918;2022-09-28T01:04:15;5.30;;;1.95;;
40591;SDS011;26301;42.832;23.918;2022-09-28T01:06:41;12.65;;;2.08;;
40591;SDS011;26301;42.832;23.918;2022-09-28T01:09:09;9.35;;;2.13;;
40591;SDS011;26301;42.832;23.918;2022-09-28T01:11:38;5.38;;;2.00;;
40591;SDS011;26301;42.832;23.918;2022-09-28T01:14:05;6.00;;;1.88;;
40591;SDS011;26301;42.832;23.918;2022-09-28T01:16:43;5.80;;;2.28;;
40591;SDS011;26301;42.832;23.918;2022-09-28T01:28:18;7.72;;;1.83;;
40591;SDS011;26301;42.832;23.918;2022-09-28T01:33:54;10.80;;;2.40;;
40591;SDS011;26301;42.832;23.918;2022-09-28T01:36:41;4.72;;;1.90;;
40591;SDS011;26301;42.832;23.918;2022-09-28T01:41:58;8.23;;;1.88;;
40591;SDS011;26301;42.832;23.918;2022-09-28T01:44:29;7.22;;;1.92;;
40591;SDS011;26301;42.832;23.918;2022-09-28T01:47:01;6.57;;;2.15;;
40591;SDS011;26301;42.832;23.918;2022-09-28T01:49:33;5.07;;;2.03;;
40591;SDS011;26301;42.832;23.918;2022-09-28T01:52:10;3.58;;;1.73;;
40591;SDS011;26301;42.832;23.918;2022-09-28T01:54:56;5.40;;;1.95;;
40591;SDS011;26301;42.832;23.918;2022-09-28T01:57:44;4.82;;;1.67;;
40591;SDS011;26301;42.832;23.918;2022-09-28T02:00:12;7.03;;;1.83;;
40591;SDS011;26301;42.832;23.918;2022-09-28T02:02:47;6.88;;;1.90;;
40591;SDS011;26301;42.832;23.918;2022-09-28T02:05:22;7.47;;;2.20;;
40591;SDS011;26301;42.832;23.918;2022-09-28T02:11:08;9.15;;;1.63;;
40591;SDS011;26301;42.832;23.918;2022-09-28T02:13:42;9.57;;;2.10;;
40591;SDS011;26301;42.832;23.918;2022-09-28T02:19:15;5.40;;;1.70;;
40591;SDS011;26301;42.832;23.918;2022-09-28T02:22:06;6.05;;;1.70;;
40591;SDS011;26301;42.832;23.918;2022-09-28T02:24:56;7.15;;;1.77;;
40591;SDS011;26301;42.832;23.918;2022-09-28T02:30:00;4.78;;;1.73;;
40591;SDS011;26301;42.832;23.918;2022-09-28T02:32:28;7.38;;;1.92;;
40591;SDS011;26301;42.832;23.918;2022-09-28T02:34:56;3.85;;;2.20;;
40591;SDS011;26301;42.832;23.918;2022-09-28T02:37:23;5.47;;;1.70;;
40591;SDS011;26301;42.832;23.918;2022-09-28T02:39:50;4.07;;;1.42;;
40591;SDS011;26301;42.832;23.918;2022-09-28T02:42:20;3.22;;;1.60;;
40591;SDS011;26301;42.832;23.918;2022-09-28T02:45:20;6.97;;;1.80;;
40591;SDS011;26301;42.832;23.918;2022-09-28T02:50:49;5.20;;;1.90;;
40591;SDS011;26301;42.832;23.918;2022-09-28T02:56:09;8.80;;;2.47;;
40591;SDS011;26301;42.832;23.918;2022-09-28T03:09:50;5.82;;;2.50;;
40591;SDS011;26301;42.832;23.918;2022-09-28T03:12:18;8.25;;;2.17;;
40591;SDS011;26301;42.832;23.918;2022-09-28T03:14:47;2.78;;;1.98;;
40591;SDS011;26301;42.832;23.918;2022-09-28T03:17:45;4.75;;;2.17;;
40591;SDS011;26301;42.832;23.918;2022-09-28T03:20:11;4.57;;;2.05;;
40591;SDS011;26301;42.832;23.918;2022-09-28T03:22:37;10.30;;;2.10;;
40591;SDS011;26301;42.832;23.918;2022-09-28T03:25:03;6.63;;;2.25;;
40591;SDS011;26301;42.832;23.918;2022-09-28T03:27:30;6.65;;;2.00;;
40591;SDS011;26301;42.832;23.918;2022-09-28T03:29:55;6.80;;;2.10;;
40591;SDS011;26301;42.832;23.918;2022-09-28T03:32:21;2.95;;;1.83;;
40591;SDS011;26301;42.832;23.918;2022-09-28T03:34:47;7.30;;;2.10;;
40591;SDS011;26301;42.832;23.918;2022-09-28T03:37:13;7.20;;;2.22;;
40591;SDS011;26301;42.832;23.918;2022-09-28T03:39:38;3.95;;;1.98;;
40591;SDS011;26301;42.832;23.918;2022-09-28T03:42:04;5.30;;;1.92;;
40591;SDS011;26301;42.832;23.918;2022-09-28T03:44:30;5.63;;;1.83;;
40591;SDS011;26301;42.832;23.918;2022-09-28T03:46:55;4.32;;;1.80;;
40591;SDS011;26301;42.832;23.918;2022-09-28T03:49:21;5.55;;;1.98;;
40591;SDS011;26301;42.832;23.918;2022-09-28T03:51:47;7.75;;;2.22;;
40591;SDS011;26301;42.832;23.918;2022-09-28T03:54:12;9.60;;;2.13;;
40591;SDS011;26301;42.832;23.918;2022-09-28T03:56:39;2.80;;;1.92;;
40591;SDS011;26301;42.832;23.918;2022-09-28T03:59:05;3.63;;;2.08;;
40591;SDS011;26301;42.832;23.918;2022-09-28T04:01:30;6.03;;;2.20;;
40591;SDS011;26301;42.832;23.918;2022-09-28T04:03:56;5.57;;;2.03;;
40591;SDS011;26301;42.832;23.918;2022-09-28T04:06:23;6.28;;;1.85;;
40591;SDS011;26301;42.832;23.918;2022-09-28T04:08:49;5.55;;;2.00;;
40591;SDS011;26301;42.832;23.918;2022-09-28T04:11:15;7.28;;;2.08;;
40591;SDS011;26301;42.832;23.918;2022-09-28T04:13:41;4.72;;;2.17;;
40591;SDS011;26301;42.832;23.918;2022-09-28T04:16:08;5.22;;;1.90;;
40591;SDS011;26301;42.832;23.918;2022-09-28T04:18:35;4.88;;;2.25;;
40591;SDS011;26301;42.832;23.918;2022-09-28T04:21:02;6.60;;;2.25;;
40591;SDS011;26301;42.832;23.918;2022-09-28T04:23:32;4.80;;;1.60;;
40591;SDS011;26301;42.832;23.918;2022-09-28T04:25:58;7.72;;;1.90;;
40591;SDS011;26301;42.832;23.918;2022-09-28T04:28:24;5.50;;;2.05;;
40591;SDS011;26301;42.832;23.918;2022-09-28T04:31:13;3.22;;;1.85;;
40591;SDS011;26301;42.832;23.918;2022-09-28T04:33:44;7.75;;;3.72;;
40591;SDS011;26301;42.832;23.918;2022-09-28T04:36:10;4.93;;;1.98;;
40591;SDS011;26301;42.832;23.918;2022-09-28T04:38:36;4.80;;;2.42;;
40591;SDS011;26301;42.832;23.918;2022-09-28T04:41:02;6.43;;;2.10;;
40591;SDS011;26301;42.832;23.918;2022-09-28T04:43:29;5.22;;;2.53;;
40591;SDS011;26301;42.832;23.918;2022-09-28T04:45:59;3.40;;;2.35;;
40591;SDS011;26301;42.832;23.918;2022-09-28T04:48:26;6.35;;;2.30;;
40591;SDS011;26301;42.832;23.918;2022-09-28T04:50:53;4.15;;;1.88;;
40591;SDS011;26301;42.832;23.918;2022-09-28T04:53:23;3.35;;;2.00;;
40591;SDS011;26301;42.832;23.918;2022-09-28T04:56:00;4.15;;;2.35;;
40591;SDS011;26301;42.832;23.918;2022-09-28T04:58:26;2.38;;;1.90;;
40591;SDS011;26301;42.832;23.918;2022-09-28T05:00:55;3.13;;;2.10;;
40591;SDS011;26301;42.832;23.918;2022-09-28T05:03:22;3.70;;;2.45;;
40591;SDS011;26301;42.832;23.918;2022-09-28T05:05:48;6.55;;;2.47;;
40591;SDS011;26301;42.832;23.918;2022-09-28T05:08:14;3.33;;;2.38;;
40591;SDS011;26301;42.832;23.918;2022-09-28T05:10:40;4.43;;;2.13;;
40591;SDS011;26301;42.832;23.918;2022-09-28T05:13:09;3.58;;;1.90;;
40591;SDS011;26301;42.832;23.918;2022-09-28T05:15:37;5.00;;;2.20;;
40591;SDS011;26301;42.832;23.918;2022-09-28T05:18:04;3.88;;;2.25;;
40591;SDS011;26301;42.832;23.918;2022-09-28T05:20:30;8.60;;;1.92;;
40591;SDS011;26301;42.832;23.918;2022-09-28T05:22:56;4.55;;;1.75;;
40591;SDS011;26301;42.832;23.918;2022-09-28T05:25:21;3.67;;;1.58;;
40591;SDS011;26301;42.832;23.918;2022-09-28T05:27:47;5.35;;;2.20;;
40591;SDS011;26301;42.832;23.918;2022-09-28T05:30:20;10.13;;;2.38;;
40591;SDS011;26301;42.832;23.918;2022-09-28T05:32:46;8.90;;;2.30;;
40591;SDS011;26301;42.832;23.918;2022-09-28T05:35:13;4.28;;;1.90;;
40591;SDS011;26301;42.832;23.918;2022-09-28T05:37:39;4.15;;;2.03;;
40591;SDS011;26301;42.832;23.918;2022-09-28T05:40:05;4.00;;;2.00;;
40591;SDS011;26301;42.832;23.918;2022-09-28T05:42:31;4.15;;;2.33;;
40591;SDS011;26301;42.832;23.918;2022-09-28T05:44:57;4.30;;;2.65;;
40591;SDS011;26301;42.832;23.918;2022-09-28T05:47:24;4.55;;;2.28;;
40591;SDS011;26301;42.832;23.918;2022-09-28T05:49:50;7.43;;;2.80;;
40591;SDS011;26301;42.832;23.918;2022-09-28T05:52:16;4.47;;;2.20;;
40591;SDS011;26301;42.832;23.918;2022-09-28T05:54:42;5.43;;;2.33;;
40591;SDS011;26301;42.832;23.918;2022-09-28T05:57:07;4.28;;;1.90;;
40591;SDS011;26301;42.832;23.918;2022-09-28T05:59:33;4.45;;;2.45;;
40591;SDS011;26301;42.832;23.918;2022-09-28T06:02:00;5.70;;;2.30;;
40591;SDS011;26301;42.832;23.918;2022-09-28T06:04:26;6.35;;;2.30;;
40591;SDS011;26301;42.832;23.918;2022-09-28T06:06:51;5.70;;;3.00;;
40591;SDS011;26301;42.832;23.918;2022-09-28T06:09:17;3.40;;;2.58;;
40591;SDS011;26301;42.832;23.918;2022-09-28T06:11:44;5.20;;;2.35;;
40591;SDS011;26301;42.832;23.918;2022-09-28T06:14:10;4.38;;;2.25;;
40591;SDS011;26301;42.832;23.918;2022-09-28T06:16:38;4.68;;;1.88;;
40591;SDS011;26301;42.832;23.918;2022-09-28T06:19:05;5.95;;;1.83;;
40591;SDS011;26301;42.832;23.918;2022-09-28T06:21:32;2.42;;;1.40;;
40591;SDS011;26301;42.832;23.918;2022-09-28T06:23:57;3.13;;;2.17;;
40591;SDS011;26301;42.832;23.918;2022-09-28T06:26:23;4.45;;;1.80;;
40591;SDS011;26301;42.832;23.918;2022-09-28T06:28:49;3.00;;;1.75;;
40591;SDS011;26301;42.832;23.918;2022-09-28T06:31:14;4.20;;;1.55;;
40591;SDS011;26301;42.832;23.918;2022-09-28T06:33:40;2.95;;;1.55;;
40591;SDS011;26301;42.832;23.918;2022-09-28T06:36:06;4.95;;;1.63;;
40591;SDS011;26301;42.832;23.918;2022-09-28T06:38:33;3.05;;;1.35;;
40591;SDS011;26301;42.832;23.918;2022-09-28T06:40:59;2.97;;;1.50;;
40591;SDS011;26301;42.832;23.918;2022-09-28T06:43:25;2.17;;;1.27;;
40591;SDS011;26301;42.832;23.918;2022-09-28T06:45:52;1.92;;;1.40;;
40591;SDS011;26301;42.832;23.918;2022-09-28T06:48:18;3.15;;;1.35;;
40591;SDS011;26301;42.832;23.918;2022-09-28T06:50:44;1.90;;;1.17;;
40591;SDS011;26301;42.832;23.918;2022-09-28T06:53:11;4.35;;;1.25;;
40591;SDS011;26301;42.832;23.918;2022-09-28T06:55:39;3.88;;;1.35;;
40591;SDS011;26301;42.832;23.918;2022-09-28T06:58:06;1.83;;;1.23;;
40591;SDS011;26301;42.832;23.918;2022-09-28T07:00:35;1.88;;;1.10;;
40591;SDS011;26301;42.832;23.918;2022-09-28T07:03:04;2.22;;;1.20;;
40591;SDS011;26301;42.832;23.918;2022-09-28T07:05:32;3.47;;;1.10;;
40591;SDS011;26301;42.832;23.918;2022-09-28T07:08:01;2.30;;;1.33;;
40591;SDS011;26301;42.832;23.918;2022-09-28T07:10:30;1.90;;;1.10;;
40591;SDS011;26301;42.832;23.918;2022-09-28T07:12:57;3.42;;;1.10;;
40591;SDS011;26301;42.832;23.918;2022-09-28T07:15:28;5.37;;;1.30;;
40591;SDS011;26301;42.832;23.918;2022-09-28T07:17:58;3.08;;;1.25;;
40591;SDS011;26301;42.832;23.918;2022-09-28T07:20:24;2.38;;;1.23;;
40591;SDS011;26301;42.832;23.918;2022-09-28T07:22:54;2.25;;;1.13;;
40591;SDS011;26301;42.832;23.918;2022-09-28T07:25:21;5.32;;;1.40;;
40591;SDS011;26301;42.832;23.918;2022-09-28T07:27:48;1.40;;;1.00;;
40591;SDS011;26301;42.832;23.918;2022-09-28T07:30:19;3.75;;;1.55;;
40591;SDS011;26301;42.832;23.918;2022-09-28T07:32:45;2.22;;;1.27;;
40591;SDS011;26301;42.832;23.918;2022-09-28T07:35:12;2.72;;;1.02;;
40591;SDS011;26301;42.832;23.918;2022-09-28T07:37:38;2.65;;;1.00;;
40591;SDS011;26301;42.832;23.918;2022-09-28T07:40:05;3.63;;;1.10;;
40591;SDS011;26301;42.832;23.918;2022-09-28T07:42:51;1.95;;;1.15;;
40591;SDS011;26301;42.832;23.918;2022-09-28T07:45:17;1.90;;;1.00;;
40591;SDS011;26301;42.832;23.918;2022-09-28T07:47:49;3.33;;;1.20;;
40591;SDS011;26301;42.832;23.918;2022-09-28T07:50:21;5.57;;;1.50;;
40591;SDS011;26301;42.832;23.918;2022-09-28T07:52:47;3.10;;;1.33;;
40591;SDS011;26301;42.832;23.918;2022-09-28T07:55:13;2.88;;;1.10;;
40591;SDS011;26301;42.832;23.918;2022-09-28T07:57:39;2.33;;;1.00;;
40591;SDS011;26301;42.832;23.918;2022-09-28T08:00:06;2.47;;;1.00;;
40591;SDS011;26301;42.832;23.918;2022-09-28T08:02:33;4.45;;;1.08;;
40591;SDS011;26301;42.832;23.918;2022-09-28T08:04:59;1.38;;;0.75;;
40591;SDS011;26301;42.832;23.918;2022-09-28T08:07:26;2.22;;;1.13;;
40591;SDS011;26301;42.832;23.918;2022-09-28T08:09:52;1.88;;;0.90;;
40591;SDS011;26301;42.832;23.918;2022-09-28T08:12:18;4.38;;;1.13;;
40591;SDS011;26301;42.832;23.918;2022-09-28T08:14:45;2.25;;;0.90;;
40591;SDS011;26301;42.832;23.918;2022-09-28T08:17:11;1.65;;;0.90;;
40591;SDS011;26301;42.832;23.918;2022-09-28T08:19:37;3.67;;;1.05;;
40591;SDS011;26301;42.832;23.918;2022-09-28T08:22:21;3.47;;;1.20;;
40591;SDS011;26301;42.832;23.918;2022-09-28T08:24:48;4.25;;;0.90;;
40591;SDS011;26301;42.832;23.918;2022-09-28T08:27:14;4.72;;;1.10;;
40591;SDS011;26301;42.832;23.918;2022-09-28T08:29:43;2.42;;;0.98;;
40591;SDS011;26301;42.832;23.918;2022-09-28T08:32:09;2.65;;;1.00;;
40591;SDS011;26301;42.832;23.918;2022-09-28T08:34:35;3.50;;;1.20;;
40591;SDS011;26301;42.832;23.918;2022-09-28T08:37:02;2.25;;;0.90;;
40591;SDS011;26301;42.832;23.918;2022-09-28T08:39:31;3.22;;;1.85;;
40591;SDS011;26301;42.832;23.918;2022-09-28T08:44:44;3.05;;;1.10;;
40591;SDS011;26301;42.832;23.918;2022-09-28T08:47:14;2.38;;;1.52;;
40591;SDS011;26301;42.832;23.918;2022-09-28T08:50:07;4.90;;;1.08;;
40591;SDS011;26301;42.832;23.918;2022-09-28T08:52:40;3.65;;;0.98;;
40591;SDS011;26301;42.832;23.918;2022-09-28T08:55:21;1.60;;;0.80;;
40591;SDS011;26301;42.832;23.918;2022-09-28T08:57:50;6.22;;;1.20;;
40591;SDS011;26301;42.832;23.918;2022-09-28T09:03:12;3.17;;;1.00;;
40591;SDS011;26301;42.832;23.918;2022-09-28T09:13:40;1.70;;;0.98;;
40591;SDS011;26301;42.832;23.918;2022-09-28T09:16:28;3.65;;;0.80;;
40591;SDS011;26301;42.832;23.918;2022-09-28T09:21:57;2.30;;;0.80;;
40591;SDS011;26301;42.832;23.918;2022-09-28T09:27:13;2.72;;;1.10;;
40591;SDS011;26301;42.832;23.918;2022-09-28T09:30:38;1.92;;;0.73;;
40591;SDS011;26301;42.832;23.918;2022-09-28T09:49:35;1.05;;;0.80;;
40591;SDS011;26301;42.832;23.918;2022-09-28T09:52:11;2.67;;;0.80;;
40591;SDS011;26301;42.832;23.918;2022-09-28T09:54:54;1.95;;;0.98;;
40591;SDS011;26301;42.832;23.918;2022-09-28T09:57:28;3.47;;;0.90;;
40591;SDS011;26301;42.832;23.918;2022-09-28T09:59:59;4.43;;;0.82;;
40591;SDS011;26301;42.832;23.918;2022-09-28T10:02:28;1.83;;;0.95;;
40591;SDS011;26301;42.832;23.918;2022-09-28T10:10:17;1.73;;;0.80;;
40591;SDS011;26301;42.832;23.918;2022-09-28T10:12:47;3.70;;;0.80;;
40591;SDS011;26301;42.832;23.918;2022-09-28T10:15:16;2.10;;;0.88;;
40591;SDS011;26301;42.832;23.918;2022-09-28T10:17:47;1.70;;;0.80;;
40591;SDS011;26301;42.832;23.918;2022-09-28T10:20:13;3.15;;;0.90;;
40591;SDS011;26301;42.832;23.918;2022-09-28T10:22:40;4.32;;;0.80;;
40591;SDS011;26301;42.832;23.918;2022-09-28T10:25:08;3.55;;;0.90;;
40591;SDS011;26301;42.832;23.918;2022-09-28T10:27:37;3.38;;;0.80;;
40591;SDS011;26301;42.832;23.918;2022-09-28T10:32:42;2.25;;;0.90;;
40591;SDS011;26301;42.832;23.918;2022-09-28T10:35:30;2.05;;;0.70;;
40591;SDS011;26301;42.832;23.918;2022-09-28T10:38:12;4.13;;;0.98;;
40591;SDS011;26301;42.832;23.918;2022-09-28T10:40:43;1.67;;;0.80;;
40591;SDS011;26301;42.832;23.918;2022-09-28T10:46:08;1.10;;;0.70;;
40591;SDS011;26301;42.832;23.918;2022-09-28T10:48:50;2.38;;;0.63;;
40591;SDS011;26301;42.832;23.918;2022-09-28T10:51:19;2.03;;;0.60;;
40591;SDS011;26301;42.832;23.918;2022-09-28T10:53:58;7.63;;;0.65;;
40591;SDS011;26301;42.832;23.918;2022-09-28T10:56:26;2.15;;;0.65;;
40591;SDS011;26301;42.832;23.918;2022-09-28T10:58:54;2.20;;;0.90;;
40591;SDS011;26301;42.832;23.918;2022-09-28T11:01:21;3.58;;;0.80;;
40591;SDS011;26301;42.832;23.918;2022-09-28T11:03:56;2.47;;;0.70;;
40591;SDS011;26301;42.832;23.918;2022-09-28T11:06:28;2.38;;;0.95;;
40591;SDS011;26301;42.832;23.918;2022-09-28T11:08:56;4.10;;;0.80;;
40591;SDS011;26301;42.832;23.918;2022-09-28T11:11:25;2.67;;;0.63;;
40591;SDS011;26301;42.832;23.918;2022-09-28T11:13:52;2.83;;;0.70;;
40591;SDS011;26301;42.832;23.918;2022-09-28T11:18:52;7.45;;;1.00;;
40591;SDS011;26301;42.832;23.918;2022-09-28T11:21:26;3.47;;;0.95;;
40591;SDS011;26301;42.832;23.918;2022-09-28T11:23:57;0.55;;;0.55;;
40591;SDS011;26301;42.832;23.918;2022-09-28T11:26:33;2.10;;;1.17;;
40591;SDS011;26301;42.832;23.918;2022-09-28T11:29:01;2.55;;;0.70;;
40591;SDS011;26301;42.832;23.918;2022-09-28T11:31:29;2.47;;;0.95;;
40591;SDS011;26301;42.832;23.918;2022-09-28T11:34:04;2.72;;;1.15;;
40591;SDS011;26301;42.832;23.918;2022-09-28T11:44:48;3.83;;;1.00;;
40591;SDS011;26301;42.832;23.918;2022-09-28T11:47:48;2.05;;;0.90;;
40591;SDS011;26301;42.832;23.918;2022-09-28T11:50:40;2.53;;;0.80;;
40591;SDS011;26301;42.832;23.918;2022-09-28T12:01:04;1.92;;;0.85;;
40591;SDS011;26301;42.832;23.918;2022-09-28T12:03:46;2.47;;;0.88;;
40591;SDS011;26301;42.832;23.918;2022-09-28T12:06:18;4.40;;;0.80;;
40591;SDS011;26301;42.832;23.918;2022-09-28T12:08:50;2.42;;;0.80;;
40591;SDS011;26301;42.832;23.918;2022-09-28T12:11:20;5.35;;;1.10;;
40591;SDS011;26301;42.832;23.918;2022-09-28T12:13:56;5.47;;;1.00;;
40591;SDS011;26301;42.832;23.918;2022-09-28T12:16:27;2.10;;;0.88;;
40591;SDS011;26301;42.832;23.918;2022-09-28T12:19:01;1.90;;;0.70;;
40591;SDS011;26301;42.832;23.918;2022-09-28T12:32:04;2.70;;;0.90;;
40591;SDS011;26301;42.832;23.918;2022-09-28T12:34:41;2.60;;;0.82;;
40591;SDS011;26301;42.832;23.918;2022-09-28T12:45:36;7.28;;;1.00;;
40591;SDS011;26301;42.832;23.918;2022-09-28T12:51:17;6.88;;;1.17;;
40591;SDS011;26301;42.832;23.918;2022-09-28T12:54:01;3.25;;;0.88;;
40591;SDS011;26301;42.832;23.918;2022-09-28T12:56:37;4.47;;;0.95;;
40591;SDS011;26301;42.832;23.918;2022-09-28T12:59:36;5.57;;;1.25;;
40591;SDS011;26301;42.832;23.918;2022-09-28T13:09:47;3.72;;;1.10;;
40591;SDS011;26301;42.832;23.918;2022-09-28T13:12:57;4.70;;;1.30;;
40591;SDS011;26301;42.832;23.918;2022-09-28T13:24:35;3.28;;;0.73;;
40591;SDS011;26301;42.832;23.918;2022-09-28T13:27:24;2.05;;;0.80;;
40591;SDS011;26301;42.832;23.918;2022-09-28T13:29:51;3.00;;;0.93;;
40591;SDS011;26301;42.832;23.918;2022-09-28T13:32:17;2.55;;;0.73;;
40591;SDS011;26301;42.832;23.918;2022-09-28T13:34:45;2.13;;;0.90;;
40591;SDS011;26301;42.832;23.918;2022-09-28T13:42:10;2.38;;;0.80;;
40591;SDS011;26301;42.832;23.918;2022-09-28T13:44:53;1.80;;;0.82;;
40591;SDS011;26301;42.832;23.918;2022-09-28T14:12:46;1.77;;;0.82;;
40591;SDS011;26301;42.832;23.918;2022-09-28T14:20:20;4.43;;;1.17;;
40591;SDS011;26301;42.832;23.918;2022-09-28T14:22:57;6.97;;;1.50;;
40591;SDS011;26301;42.832;23.918;2022-09-28T14:31:26;2.03;;;1.00;;
40591;SDS011;26301;42.832;23.918;2022-09-28T14:33:57;10.52;;;1.33;;
40591;SDS011;26301;42.832;23.918;2022-09-28T14:36:28;2.40;;;0.93;;
40591;SDS011;26301;42.832;23.918;2022-09-28T14:39:29;3.92;;;1.30;;
40591;SDS011;26301;42.832;23.918;2022-09-28T14:42:17;3.03;;;1.30;;
40591;SDS011;26301;42.832;23.918;2022-09-28T14:52:48;4.60;;;1.30;;
40591;SDS011;26301;42.832;23.918;2022-09-28T14:55:18;6.53;;;1.33;;
40591;SDS011;26301;42.832;23.918;2022-09-28T14:57:54;8.98;;;1.63;;
40591;SDS011;26301;42.832;23.918;2022-09-28T15:00:22;7.65;;;1.73;;
40591;SDS011;26301;42.832;23.918;2022-09-28T15:02:51;10.48;;;1.73;;
40591;SDS011;26301;42.832;23.918;2022-09-28T15:05:26;4.68;;;1.70;;
40591;SDS011;26301;42.832;23.918;2022-09-28T15:07:54;8.73;;;2.22;;
40591;SDS011;26301;42.832;23.918;2022-09-28T15:10:21;6.07;;;1.80;;
40591;SDS011;26301;42.832;23.918;2022-09-28T15:12:58;5.70;;;1.60;;
40591;SDS011;26301;42.832;23.918;2022-09-28T15:20:46;6.20;;;1.45;;
40591;SDS011;26301;42.832;23.918;2022-09-28T15:25:54;9.90;;;1.67;;
40591;SDS011;26301;42.832;23.918;2022-09-28T15:28:21;6.03;;;1.30;;
40591;SDS011;26301;42.832;23.918;2022-09-28T15:30:47;8.10;;;1.73;;
40591;SDS011;26301;42.832;23.918;2022-09-28T15:33:30;9.90;;;1.90;;
40591;SDS011;26301;42.832;23.918;2022-09-28T15:36:20;3.33;;;1.38;;
40591;SDS011;26301;42.832;23.918;2022-09-28T15:41:23;2.03;;;1.35;;
40591;SDS011;26301;42.832;23.918;2022-09-28T15:46:35;5.55;;;1.25;;
40591;SDS011;26301;42.832;23.918;2022-09-28T15:49:03;6.53;;;1.80;;
40591;SDS011;26301;42.832;23.918;2022-09-28T15:51:30;12.63;;;2.35;;
40591;SDS011;26301;42.832;23.918;2022-09-28T15:54:17;5.88;;;1.92;;
40591;SDS011;26301;42.832;23.918;2022-09-28T15:56:52;5.40;;;1.75;;
40591;SDS011;26301;42.832;23.918;2022-09-28T16:02:08;6.95;;;1.70;;
40591;SDS011;26301;42.832;23.918;2022-09-28T16:04:49;5.47;;;1.60;;
40591;SDS011;26301;42.832;23.918;2022-09-28T16:07:21;5.65;;;1.70;;
40591;SDS011;26301;42.832;23.918;2022-09-28T16:09:53;7.05;;;1.67;;
40591;SDS011;26301;42.832;23.918;2022-09-28T16:12:21;11.73;;;3.15;;
40591;SDS011;26301;42.832;23.918;2022-09-28T16:14:51;6.30;;;2.47;;
40591;SDS011;26301;42.832;23.918;2022-09-28T16:17:24;7.38;;;1.73;;
40591;SDS011;26301;42.832;23.918;2022-09-28T16:19:56;6.90;;;1.95;;
40591;SDS011;26301;42.832;23.918;2022-09-28T16:22:24;7.53;;;1.95;;
40591;SDS011;26301;42.832;23.918;2022-09-28T16:24:54;4.90;;;1.60;;
40591;SDS011;26301;42.832;23.918;2022-09-28T16:27:26;3.13;;;1.70;;
40591;SDS011;26301;42.832;23.918;2022-09-28T16:32:36;5.85;;;1.55;;
40591;SDS011;26301;42.832;23.918;2022-09-28T16:37:36;7.18;;;1.98;;
40591;SDS011;26301;42.832;23.918;2022-09-28T16:40:07;8.77;;;2.10;;
40591;SDS011;26301;42.832;23.918;2022-09-28T16:42:33;3.90;;;1.77;;
40591;SDS011;26301;42.832;23.918;2022-09-28T16:45:01;6.70;;;2.03;;
40591;SDS011;26301;42.832;23.918;2022-09-28T16:47:29;5.55;;;1.90;;
40591;SDS011;26301;42.832;23.918;2022-09-28T16:49:59;8.90;;;1.83;;
40591;SDS011;26301;42.832;23.918;2022-09-28T16:52:28;5.60;;;2.10;;
40591;SDS011;26301;42.832;23.918;2022-09-28T16:55:12;5.38;;;1.60;;
40591;SDS011;26301;42.832;23.918;2022-09-28T16:57:41;8.85;;;1.90;;
40591;SDS011;26301;42.832;23.918;2022-09-28T17:00:09;5.22;;;1.80;;
40591;SDS011;26301;42.832;23.918;2022-09-28T17:02:40;5.18;;;1.90;;
40591;SDS011;26301;42.832;23.918;2022-09-28T17:05:06;4.03;;;1.70;;
40591;SDS011;26301;42.832;23.918;2022-09-28T17:07:32;7.00;;;1.90;;
40591;SDS011;26301;42.832;23.918;2022-09-28T17:10:01;6.60;;;1.90;;
40591;SDS011;26301;42.832;23.918;2022-09-28T17:12:27;5.00;;;1.90;;
40591;SDS011;26301;42.832;23.918;2022-09-28T17:14:53;5.65;;;1.90;;
40591;SDS011;26301;42.832;23.918;2022-09-28T17:17:19;7.93;;;1.98;;
40591;SDS011;26301;42.832;23.918;2022-09-28T17:19:45;3.35;;;1.60;;
40591;SDS011;26301;42.832;23.918;2022-09-28T17:22:11;4.97;;;1.52;;
40591;SDS011;26301;42.832;23.918;2022-09-28T17:24:38;8.60;;;1.70;;
40591;SDS011;26301;42.832;23.918;2022-09-28T17:27:04;7.10;;;1.92;;
40591;SDS011;26301;42.832;23.918;2022-09-28T17:29:31;4.75;;;2.25;;
40591;SDS011;26301;42.832;23.918;2022-09-28T17:31:57;12.63;;;2.17;;
40591;SDS011;26301;42.832;23.918;2022-09-28T17:34:22;4.05;;;2.00;;
40591;SDS011;26301;42.832;23.918;2022-09-28T17:36:48;3.85;;;2.03;;
40591;SDS011;26301;42.832;23.918;2022-09-28T17:39:16;4.97;;;1.40;;
40591;SDS011;26301;42.832;23.918;2022-09-28T17:41:43;8.00;;;2.05;;
40591;SDS011;26301;42.832;23.918;2022-09-28T17:44:09;6.10;;;1.80;;
40591;SDS011;26301;42.832;23.918;2022-09-28T17:46:37;5.35;;;1.40;;
40591;SDS011;26301;42.832;23.918;2022-09-28T17:49:05;4.25;;;1.38;;
40591;SDS011;26301;42.832;23.918;2022-09-28T17:51:33;3.00;;;1.90;;
40591;SDS011;26301;42.832;23.918;2022-09-28T17:54:01;8.20;;;1.92;;
40591;SDS011;26301;42.832;23.918;2022-09-28T17:56:28;2.65;;;1.40;;
40591;SDS011;26301;42.832;23.918;2022-09-28T17:58:55;11.20;;;1.70;;
40591;SDS011;26301;42.832;23.918;2022-09-28T18:01:24;6.13;;;1.92;;
40591;SDS011;26301;42.832;23.918;2022-09-28T18:03:49;5.07;;;2.00;;
40591;SDS011;26301;42.832;23.918;2022-09-28T18:06:16;6.93;;;2.15;;
40591;SDS011;26301;42.832;23.918;2022-09-28T18:08:47;5.68;;;2.33;;
40591;SDS011;26301;42.832;23.918;2022-09-28T18:11:13;6.38;;;1.50;;
40591;SDS011;26301;42.832;23.918;2022-09-28T18:13:41;7.47;;;1.70;;
40591;SDS011;26301;42.832;23.918;2022-09-28T18:16:10;4.25;;;1.98;;
40591;SDS011;26301;42.832;23.918;2022-09-28T18:18:36;12.02;;;4.60;;
40591;SDS011;26301;42.832;23.918;2022-09-28T18:21:04;8.65;;;3.35;;
40591;SDS011;26301;42.832;23.918;2022-09-28T18:23:36;8.93;;;2.20;;
40591;SDS011;26301;42.832;23.918;2022-09-28T18:26:03;9.50;;;2.60;;
40591;SDS011;26301;42.832;23.918;2022-09-28T18:28:38;7.35;;;1.70;;